OAL017 LGAV-LIBD
Flight info
| Callsign | OAL017 |
|---|---|
| Flight time | 1h 14m |
| Altitude | 36000 |
| Route | KOR UL53 KRK UL995 TIGRA DCT FASAN |
| Aircraft | A320/M-SDE3FGHIRWY/LB1 |
Departure
| Time | 2026-05-08 12:16 |
|---|---|
| Airport | Athens Eleftherios Venizelos International Airport (LGAV) |
Arrival
| Time | 2026-05-08 13:31 |
|---|---|
| Airport | Bari Karol Wojtyła International Airport (LIBD) |
| Time | Latitude | Longitude | Altitude | Speed | Heading |
|---|---|---|---|---|---|
| 2026-05-08 12:08 | 37.94136 | 23.95334 | 301 ft | 0 kts | 218° |
| 2026-05-08 12:10 | 37.94137 | 23.95334 | 301 ft | 2 kts | 218° |
| 2026-05-08 12:10 | 37.94161 | 23.95358 | 300 ft | 4 kts | 218° |
| 2026-05-08 12:10 | 37.94186 | 23.95382 | 301 ft | 4 kts | 218° |
| 2026-05-08 12:10 | 37.94212 | 23.95401 | 303 ft | 4 kts | 153° |
| 2026-05-08 12:11 | 37.94217 | 23.95400 | 302 ft | 2 kts | 123° |
| 2026-05-08 12:11 | 37.94212 | 23.95411 | 303 ft | 0 kts | 123° |
| 2026-05-08 12:11 | 37.94205 | 23.95424 | 301 ft | 4 kts | 123° |
| 2026-05-08 12:11 | 37.94176 | 23.95479 | 302 ft | 11 kts | 123° |
| 2026-05-08 12:12 | 37.94116 | 23.95584 | 299 ft | 18 kts | 127° |
| 2026-05-08 12:12 | 37.94135 | 23.95733 | 298 ft | 22 kts | 39° |
| 2026-05-08 12:12 | 37.94275 | 23.95868 | 299 ft | 28 kts | 36° |
| 2026-05-08 12:12 | 37.94448 | 23.96032 | 300 ft | 34 kts | 37° |
| 2026-05-08 12:13 | 37.94652 | 23.96230 | 299 ft | 40 kts | 38° |
| 2026-05-08 12:13 | 37.94884 | 23.96455 | 303 ft | 45 kts | 37° |
| 2026-05-08 12:13 | 37.95146 | 23.96701 | 305 ft | 49 kts | 36° |
| 2026-05-08 12:13 | 37.95296 | 23.96870 | 303 ft | 23 kts | 81° |
| 2026-05-08 12:14 | 37.95276 | 23.96942 | 306 ft | 0 kts | 119° |
| 2026-05-08 12:14 | 37.95274 | 23.96947 | 306 ft | 1 kts | 119° |
| 2026-05-08 12:14 | 37.95273 | 23.96950 | 306 ft | 2 kts | 119° |
| 2026-05-08 12:14 | 37.95263 | 23.96971 | 307 ft | 4 kts | 119° |
| 2026-05-08 12:15 | 37.95247 | 23.97008 | 309 ft | 7 kts | 120° |
| 2026-05-08 12:15 | 37.95184 | 23.97012 | 310 ft | 14 kts | 214° |
| 2026-05-08 12:15 | 37.95017 | 23.96856 | 308 ft | 68 kts | 217° |
| 2026-05-08 12:15 | 37.94386 | 23.96260 | 292 ft | 153 kts | 217° |
| 2026-05-08 12:16 | 37.93427 | 23.95403 | 841 ft | 175 kts | 213° |
| 2026-05-08 12:16 | 37.92370 | 23.94546 | 1787 ft | 185 kts | 212° |
| 2026-05-08 12:16 | 37.91252 | 23.93654 | 2772 ft | 199 kts | 210° |
| 2026-05-08 12:16 | 37.89963 | 23.92760 | 3505 ft | 222 kts | 207° |
| 2026-05-08 12:17 | 37.88551 | 23.91839 | 4186 ft | 233 kts | 207° |
| 2026-05-08 12:17 | 37.87095 | 23.90896 | 5173 ft | 236 kts | 209° |
| 2026-05-08 12:17 | 37.85635 | 23.89936 | 6158 ft | 237 kts | 210° |
| 2026-05-08 12:17 | 37.84170 | 23.88956 | 7155 ft | 239 kts | 212° |
| 2026-05-08 12:18 | 37.82707 | 23.87967 | 8070 ft | 242 kts | 212° |
| 2026-05-08 12:18 | 37.81201 | 23.86864 | 8791 ft | 253 kts | 223° |
| 2026-05-08 12:18 | 37.80147 | 23.85105 | 9528 ft | 255 kts | 250° |
| 2026-05-08 12:18 | 37.79917 | 23.82885 | 10310 ft | 262 kts | 274° |
| 2026-05-08 12:19 | 37.80221 | 23.80543 | 10612 ft | 286 kts | 280° |
| 2026-05-08 12:19 | 37.80618 | 23.77979 | 10910 ft | 306 kts | 278° |
| 2026-05-08 12:19 | 37.80987 | 23.75292 | 11539 ft | 314 kts | 279° |
| 2026-05-08 12:19 | 37.81390 | 23.72559 | 12289 ft | 318 kts | 279° |
| 2026-05-08 12:20 | 37.81805 | 23.69795 | 13064 ft | 321 kts | 279° |
| 2026-05-08 12:20 | 37.82220 | 23.67012 | 13849 ft | 323 kts | 279° |
| 2026-05-08 12:20 | 37.82637 | 23.64201 | 14532 ft | 326 kts | 279° |
| 2026-05-08 12:20 | 37.83055 | 23.61368 | 15184 ft | 329 kts | 279° |
| 2026-05-08 12:21 | 37.83477 | 23.58510 | 15829 ft | 332 kts | 279° |
| 2026-05-08 12:21 | 37.83902 | 23.55615 | 16466 ft | 336 kts | 279° |
| 2026-05-08 12:21 | 37.84329 | 23.52695 | 17121 ft | 339 kts | 279° |
| 2026-05-08 12:21 | 37.84759 | 23.49751 | 17782 ft | 342 kts | 279° |
| 2026-05-08 12:22 | 37.85192 | 23.46775 | 18435 ft | 346 kts | 279° |
| 2026-05-08 12:22 | 37.85629 | 23.43769 | 19035 ft | 349 kts | 279° |
| 2026-05-08 12:22 | 37.86065 | 23.40732 | 19725 ft | 352 kts | 279° |
| 2026-05-08 12:22 | 37.86502 | 23.37656 | 20445 ft | 354 kts | 279° |
| 2026-05-08 12:23 | 37.86932 | 23.34577 | 21094 ft | 356 kts | 279° |
| 2026-05-08 12:23 | 37.87357 | 23.31476 | 21699 ft | 358 kts | 279° |
| 2026-05-08 12:23 | 37.87772 | 23.28390 | 22275 ft | 361 kts | 279° |
| 2026-05-08 12:23 | 37.88189 | 23.25245 | 22848 ft | 363 kts | 279° |
| 2026-05-08 12:24 | 37.88604 | 23.22083 | 23398 ft | 366 kts | 279° |
| 2026-05-08 12:24 | 37.89054 | 23.18903 | 23867 ft | 369 kts | 280° |
| 2026-05-08 12:24 | 37.89547 | 23.15705 | 24298 ft | 371 kts | 281° |
| 2026-05-08 12:24 | 37.90065 | 23.12490 | 24737 ft | 374 kts | 281° |
| 2026-05-08 12:25 | 37.90591 | 23.09258 | 25169 ft | 376 kts | 280° |
| 2026-05-08 12:25 | 37.91115 | 23.06003 | 25572 ft | 379 kts | 280° |
| 2026-05-08 12:25 | 37.91635 | 23.02725 | 25996 ft | 381 kts | 280° |
| 2026-05-08 12:25 | 37.92150 | 22.99429 | 26425 ft | 383 kts | 279° |
| 2026-05-08 12:26 | 37.92691 | 22.96123 | 26822 ft | 385 kts | 283° |
| 2026-05-08 12:26 | 37.93621 | 22.92920 | 27234 ft | 391 kts | 293° |
| 2026-05-08 12:26 | 37.95039 | 22.89957 | 27642 ft | 397 kts | 301° |
| 2026-05-08 12:26 | 37.96634 | 22.87089 | 28094 ft | 398 kts | 300° |
| 2026-05-08 12:27 | 37.98227 | 22.84208 | 28515 ft | 400 kts | 300° |
| 2026-05-08 12:27 | 37.99820 | 22.81311 | 28907 ft | 402 kts | 300° |
| 2026-05-08 12:27 | 38.01419 | 22.78395 | 29288 ft | 404 kts | 300° |
| 2026-05-08 12:27 | 38.03027 | 22.75460 | 29694 ft | 405 kts | 300° |
| 2026-05-08 12:28 | 38.04637 | 22.72522 | 30090 ft | 407 kts | 300° |
| 2026-05-08 12:28 | 38.06256 | 22.69569 | 30418 ft | 408 kts | 300° |
| 2026-05-08 12:28 | 38.07876 | 22.66614 | 30817 ft | 407 kts | 300° |
| 2026-05-08 12:28 | 38.09493 | 22.63666 | 31234 ft | 406 kts | 299° |
| 2026-05-08 12:29 | 38.11109 | 22.60724 | 31645 ft | 406 kts | 299° |
| 2026-05-08 12:29 | 38.12721 | 22.57787 | 32066 ft | 405 kts | 299° |
| 2026-05-08 12:29 | 38.14326 | 22.54855 | 32485 ft | 404 kts | 299° |
| 2026-05-08 12:29 | 38.15928 | 22.51920 | 32920 ft | 403 kts | 299° |
| 2026-05-08 12:30 | 38.17524 | 22.48993 | 33340 ft | 403 kts | 298° |
| 2026-05-08 12:30 | 38.19115 | 22.46070 | 33779 ft | 402 kts | 298° |
| 2026-05-08 12:30 | 38.20701 | 22.43153 | 34271 ft | 400 kts | 298° |
| 2026-05-08 12:30 | 38.22277 | 22.40248 | 34693 ft | 398 kts | 298° |
| 2026-05-08 12:31 | 38.23843 | 22.37353 | 35057 ft | 398 kts | 298° |
| 2026-05-08 12:31 | 38.25417 | 22.34449 | 35386 ft | 398 kts | 298° |
| 2026-05-08 12:31 | 38.26992 | 22.31549 | 35705 ft | 399 kts | 298° |
| 2026-05-08 12:31 | 38.28572 | 22.28642 | 35999 ft | 400 kts | 298° |
| 2026-05-08 12:32 | 38.31745 | 22.22791 | 36084 ft | 403 kts | 299° |
| 2026-05-08 12:32 | 38.34390 | 22.17896 | 36087 ft | 404 kts | 299° |
| 2026-05-08 12:33 | 38.37570 | 22.11992 | 36126 ft | 404 kts | 298° |
| 2026-05-08 12:33 | 38.41254 | 22.05135 | 36082 ft | 403 kts | 298° |
| 2026-05-08 12:34 | 38.43907 | 22.00195 | 36081 ft | 403 kts | 298° |
| 2026-05-08 12:34 | 38.47048 | 21.94335 | 36081 ft | 403 kts | 298° |
| 2026-05-08 12:35 | 38.50236 | 21.88379 | 36086 ft | 404 kts | 298° |
| 2026-05-08 12:35 | 38.53394 | 21.82482 | 36090 ft | 404 kts | 298° |
| 2026-05-08 12:36 | 38.56557 | 21.76553 | 36104 ft | 403 kts | 298° |
| 2026-05-08 12:36 | 38.59708 | 21.70637 | 36101 ft | 402 kts | 298° |
| 2026-05-08 12:37 | 38.62850 | 21.64717 | 36102 ft | 402 kts | 298° |
| 2026-05-08 12:37 | 38.65989 | 21.58799 | 36099 ft | 401 kts | 298° |
| 2026-05-08 12:38 | 38.69122 | 21.52887 | 36091 ft | 401 kts | 298° |
| 2026-05-08 12:38 | 38.72246 | 21.46966 | 36095 ft | 401 kts | 298° |
| 2026-05-08 12:39 | 38.75371 | 21.41039 | 36093 ft | 401 kts | 298° |
| 2026-05-08 12:39 | 38.78488 | 21.35111 | 36089 ft | 401 kts | 298° |
| 2026-05-08 12:40 | 38.81611 | 21.29174 | 36090 ft | 401 kts | 298° |
| 2026-05-08 12:40 | 38.84732 | 21.23239 | 36080 ft | 401 kts | 298° |
| 2026-05-08 12:41 | 38.87840 | 21.17301 | 36075 ft | 401 kts | 298° |
| 2026-05-08 12:41 | 38.90939 | 21.11348 | 36077 ft | 401 kts | 298° |
| 2026-05-08 12:42 | 38.94036 | 21.05406 | 36071 ft | 401 kts | 298° |
| 2026-05-08 12:42 | 38.97136 | 20.99456 | 36076 ft | 400 kts | 298° |
| 2026-05-08 12:43 | 39.00227 | 20.93506 | 36055 ft | 400 kts | 298° |
| 2026-05-08 12:43 | 39.03322 | 20.87544 | 36049 ft | 402 kts | 298° |
| 2026-05-08 12:44 | 39.06424 | 20.81566 | 36047 ft | 402 kts | 298° |
| 2026-05-08 12:44 | 39.09518 | 20.75578 | 36067 ft | 401 kts | 297° |
| 2026-05-08 12:45 | 39.12581 | 20.69624 | 36060 ft | 401 kts | 297° |
| 2026-05-08 12:45 | 39.15664 | 20.63632 | 36062 ft | 401 kts | 297° |
| 2026-05-08 12:46 | 39.18746 | 20.57633 | 36058 ft | 401 kts | 297° |
| 2026-05-08 12:46 | 39.21826 | 20.51630 | 36060 ft | 401 kts | 297° |
| 2026-05-08 12:47 | 39.24899 | 20.45629 | 36064 ft | 401 kts | 298° |
| 2026-05-08 12:47 | 39.27964 | 20.39626 | 36061 ft | 401 kts | 298° |
| 2026-05-08 12:48 | 39.31032 | 20.33620 | 36046 ft | 400 kts | 298° |
| 2026-05-08 12:48 | 39.34096 | 20.27602 | 36023 ft | 402 kts | 298° |
| 2026-05-08 12:49 | 39.37171 | 20.21550 | 36020 ft | 403 kts | 298° |
| 2026-05-08 12:49 | 39.40249 | 20.15473 | 36002 ft | 404 kts | 297° |
| 2026-05-08 12:50 | 39.43326 | 20.09384 | 36010 ft | 405 kts | 298° |
| 2026-05-08 12:50 | 39.46517 | 20.03352 | 36001 ft | 408 kts | 301° |
| 2026-05-08 12:51 | 39.51702 | 19.94588 | 35994 ft | 409 kts | 302° |
| 2026-05-08 12:52 | 39.55155 | 19.88737 | 35993 ft | 408 kts | 302° |
| 2026-05-08 12:52 | 39.60260 | 19.79882 | 36002 ft | 409 kts | 301° |
| 2026-05-08 12:53 | 39.63647 | 19.73971 | 36028 ft | 409 kts | 302° |
| 2026-05-08 12:53 | 39.67054 | 19.68020 | 36008 ft | 411 kts | 302° |
| 2026-05-08 12:54 | 39.70448 | 19.62104 | 36000 ft | 411 kts | 302° |
| 2026-05-08 12:54 | 39.73868 | 19.56134 | 36000 ft | 412 kts | 302° |
| 2026-05-08 12:55 | 39.77281 | 19.50147 | 35997 ft | 413 kts | 302° |
| 2026-05-08 12:55 | 39.80701 | 19.44146 | 36011 ft | 413 kts | 302° |
| 2026-05-08 12:56 | 39.84126 | 19.38139 | 36002 ft | 413 kts | 302° |
| 2026-05-08 12:56 | 39.87552 | 19.32116 | 36000 ft | 414 kts | 302° |
| 2026-05-08 12:57 | 39.90968 | 19.26090 | 36003 ft | 414 kts | 302° |
| 2026-05-08 12:57 | 39.94383 | 19.20055 | 36009 ft | 414 kts | 302° |
| 2026-05-08 12:58 | 39.97800 | 19.14002 | 36002 ft | 415 kts | 302° |
| 2026-05-08 12:58 | 40.01207 | 19.07952 | 35989 ft | 417 kts | 303° |
| 2026-05-08 12:59 | 40.04636 | 19.01843 | 35983 ft | 418 kts | 303° |
| 2026-05-08 12:59 | 40.08016 | 18.95675 | 35976 ft | 418 kts | 301° |
| 2026-05-08 13:00 | 40.11283 | 18.89402 | 35979 ft | 418 kts | 301° |
| 2026-05-08 13:00 | 40.14538 | 18.83098 | 35976 ft | 418 kts | 301° |
| 2026-05-08 13:01 | 40.17814 | 18.76812 | 35979 ft | 418 kts | 301° |
| 2026-05-08 13:01 | 40.21093 | 18.70540 | 35987 ft | 418 kts | 301° |
| 2026-05-08 13:02 | 40.24344 | 18.64309 | 35971 ft | 417 kts | 301° |
| 2026-05-08 13:02 | 40.27619 | 18.58017 | 35960 ft | 419 kts | 301° |
| 2026-05-08 13:03 | 40.30900 | 18.51685 | 35948 ft | 421 kts | 301° |
| 2026-05-08 13:03 | 40.34189 | 18.45327 | 35945 ft | 422 kts | 301° |
| 2026-05-08 13:04 | 40.37481 | 18.38950 | 35949 ft | 422 kts | 301° |
| 2026-05-08 13:04 | 40.40772 | 18.32569 | 35963 ft | 422 kts | 301° |
| 2026-05-08 13:05 | 40.44058 | 18.26181 | 35964 ft | 422 kts | 301° |
| 2026-05-08 13:05 | 40.47337 | 18.19795 | 35967 ft | 422 kts | 301° |
| 2026-05-08 13:06 | 40.50611 | 18.13402 | 35969 ft | 422 kts | 301° |
| 2026-05-08 13:06 | 40.52245 | 18.10203 | 35805 ft | 421 kts | 301° |
| 2026-05-08 13:06 | 40.53877 | 18.07008 | 35352 ft | 421 kts | 301° |
| 2026-05-08 13:07 | 40.55512 | 18.03809 | 34612 ft | 422 kts | 301° |
| 2026-05-08 13:07 | 40.57156 | 18.00584 | 33833 ft | 426 kts | 301° |
| 2026-05-08 13:07 | 40.58812 | 17.97325 | 32886 ft | 430 kts | 301° |
| 2026-05-08 13:07 | 40.60481 | 17.94043 | 31996 ft | 433 kts | 302° |
| 2026-05-08 13:08 | 40.62162 | 17.90733 | 31063 ft | 437 kts | 302° |
| 2026-05-08 13:08 | 40.63856 | 17.87397 | 30101 ft | 441 kts | 302° |
| 2026-05-08 13:08 | 40.65563 | 17.84034 | 29343 ft | 439 kts | 302° |
| 2026-05-08 13:08 | 40.67242 | 17.80724 | 28737 ft | 432 kts | 302° |
| 2026-05-08 13:09 | 40.68900 | 17.77457 | 28101 ft | 426 kts | 302° |
| 2026-05-08 13:09 | 40.70536 | 17.74236 | 27454 ft | 420 kts | 302° |
| 2026-05-08 13:09 | 40.72149 | 17.71053 | 26824 ft | 416 kts | 302° |
| 2026-05-08 13:09 | 40.73744 | 17.67896 | 26207 ft | 412 kts | 302° |
| 2026-05-08 13:10 | 40.75323 | 17.64766 | 25598 ft | 408 kts | 302° |
| 2026-05-08 13:10 | 40.76888 | 17.61656 | 24983 ft | 405 kts | 302° |
| 2026-05-08 13:10 | 40.78440 | 17.58566 | 24389 ft | 403 kts | 302° |
| 2026-05-08 13:10 | 40.79981 | 17.55494 | 23791 ft | 401 kts | 301° |
| 2026-05-08 13:11 | 40.81516 | 17.52433 | 23141 ft | 399 kts | 301° |
| 2026-05-08 13:11 | 40.83038 | 17.49392 | 22574 ft | 395 kts | 301° |
| 2026-05-08 13:11 | 40.84542 | 17.46381 | 22010 ft | 392 kts | 301° |
| 2026-05-08 13:11 | 40.86037 | 17.43387 | 21484 ft | 389 kts | 301° |
| 2026-05-08 13:12 | 40.87482 | 17.40387 | 20945 ft | 386 kts | 299° |
| 2026-05-08 13:12 | 40.88844 | 17.37349 | 20417 ft | 383 kts | 298° |
| 2026-05-08 13:12 | 40.90134 | 17.34344 | 19898 ft | 380 kts | 297° |
| 2026-05-08 13:12 | 40.91413 | 17.31302 | 19388 ft | 378 kts | 297° |
| 2026-05-08 13:13 | 40.92694 | 17.28255 | 18864 ft | 380 kts | 297° |
| 2026-05-08 13:13 | 40.93992 | 17.25197 | 18309 ft | 383 kts | 297° |
| 2026-05-08 13:13 | 40.95308 | 17.22133 | 17700 ft | 383 kts | 297° |
| 2026-05-08 13:13 | 40.96625 | 17.19087 | 17122 ft | 378 kts | 298° |
| 2026-05-08 13:14 | 40.97927 | 17.16088 | 16539 ft | 374 kts | 298° |
| 2026-05-08 13:14 | 40.99215 | 17.13121 | 15977 ft | 370 kts | 297° |
| 2026-05-08 13:14 | 41.00488 | 17.10178 | 15389 ft | 367 kts | 297° |
| 2026-05-08 13:14 | 41.01753 | 17.07247 | 14800 ft | 365 kts | 297° |
| 2026-05-08 13:15 | 41.03012 | 17.04327 | 14194 ft | 364 kts | 298° |
| 2026-05-08 13:15 | 41.04263 | 17.01419 | 13575 ft | 364 kts | 298° |
| 2026-05-08 13:15 | 41.05519 | 16.98494 | 12924 ft | 364 kts | 297° |
| 2026-05-08 13:15 | 41.06543 | 16.95470 | 12315 ft | 357 kts | 285° |
| 2026-05-08 13:16 | 41.06941 | 16.92275 | 11856 ft | 346 kts | 270° |
| 2026-05-08 13:16 | 41.06737 | 16.89186 | 11732 ft | 329 kts | 258° |
| 2026-05-08 13:16 | 41.06067 | 16.86356 | 11632 ft | 315 kts | 249° |
| 2026-05-08 13:16 | 41.05318 | 16.83699 | 11517 ft | 303 kts | 249° |
| 2026-05-08 13:17 | 41.04604 | 16.81165 | 11381 ft | 291 kts | 250° |
| 2026-05-08 13:17 | 41.03906 | 16.78695 | 11263 ft | 281 kts | 249° |
| 2026-05-08 13:17 | 41.03233 | 16.76316 | 11126 ft | 271 kts | 250° |
| 2026-05-08 13:17 | 41.02577 | 16.73999 | 10922 ft | 266 kts | 250° |
| 2026-05-08 13:18 | 41.01929 | 16.71713 | 10675 ft | 264 kts | 250° |
| 2026-05-08 13:18 | 41.01284 | 16.69437 | 10435 ft | 264 kts | 250° |
| 2026-05-08 13:18 | 41.00636 | 16.67162 | 10192 ft | 263 kts | 250° |
| 2026-05-08 13:18 | 40.99994 | 16.64906 | 9979 ft | 261 kts | 250° |
| 2026-05-08 13:19 | 40.99356 | 16.62667 | 9858 ft | 260 kts | 250° |
| 2026-05-08 13:19 | 40.98720 | 16.60440 | 9647 ft | 258 kts | 250° |
| 2026-05-08 13:19 | 40.98085 | 16.58217 | 9292 ft | 260 kts | 250° |
| 2026-05-08 13:19 | 40.97445 | 16.55977 | 8861 ft | 259 kts | 250° |
| 2026-05-08 13:20 | 40.96817 | 16.53789 | 8593 ft | 246 kts | 250° |
| 2026-05-08 13:20 | 40.96224 | 16.51725 | 8251 ft | 238 kts | 250° |
| 2026-05-08 13:20 | 40.95636 | 16.49677 | 7686 ft | 240 kts | 251° |
| 2026-05-08 13:20 | 40.95033 | 16.47568 | 6940 ft | 250 kts | 251° |
| 2026-05-08 13:21 | 40.94620 | 16.46126 | 6451 ft | 256 kts | 251° |
| 2026-05-08 13:21 | 40.94047 | 16.43863 | 5676 ft | 262 kts | 263° |
| 2026-05-08 13:21 | 40.94178 | 16.41482 | 4932 ft | 263 kts | 292° |
| 2026-05-08 13:21 | 40.95173 | 16.39498 | 4234 ft | 259 kts | 323° |
| 2026-05-08 13:22 | 40.96711 | 16.38549 | 4042 ft | 235 kts | 355° |
| 2026-05-08 13:22 | 40.98261 | 16.38529 | 4005 ft | 216 kts | 5° |
| 2026-05-08 13:22 | 40.99765 | 16.38546 | 4005 ft | 218 kts | 350° |
| 2026-05-08 13:22 | 41.01196 | 16.37856 | 4004 ft | 220 kts | 341° |
| 2026-05-08 13:23 | 41.02682 | 16.37578 | 3991 ft | 215 kts | 14° |
| 2026-05-08 13:23 | 41.03982 | 16.38446 | 3998 ft | 210 kts | 49° |
| 2026-05-08 13:23 | 41.04629 | 16.40128 | 4000 ft | 207 kts | 82° |
| 2026-05-08 13:23 | 41.04635 | 16.42048 | 4005 ft | 211 kts | 89° |
| 2026-05-08 13:24 | 41.04791 | 16.43970 | 4004 ft | 210 kts | 77° |
| 2026-05-08 13:24 | 41.05233 | 16.45796 | 3776 ft | 207 kts | 70° |
| 2026-05-08 13:24 | 41.05739 | 16.47579 | 3464 ft | 207 kts | 70° |
| 2026-05-08 13:24 | 41.06240 | 16.49324 | 3322 ft | 199 kts | 70° |
| 2026-05-08 13:25 | 41.06716 | 16.50978 | 3199 ft | 189 kts | 70° |
| 2026-05-08 13:25 | 41.07172 | 16.52561 | 3101 ft | 177 kts | 71° |
| 2026-05-08 13:25 | 41.07583 | 16.53988 | 3030 ft | 155 kts | 71° |
| 2026-05-08 13:25 | 41.07953 | 16.55280 | 2999 ft | 151 kts | 70° |
| 2026-05-08 13:26 | 41.08316 | 16.56552 | 2978 ft | 141 kts | 70° |
| 2026-05-08 13:26 | 41.08653 | 16.57751 | 2785 ft | 135 kts | 71° |
| 2026-05-08 13:26 | 41.08977 | 16.58897 | 2602 ft | 131 kts | 72° |
| 2026-05-08 13:26 | 41.09294 | 16.60014 | 2458 ft | 129 kts | 71° |
| 2026-05-08 13:27 | 41.09609 | 16.61122 | 2275 ft | 128 kts | 73° |
| 2026-05-08 13:27 | 41.09924 | 16.62229 | 2099 ft | 127 kts | 72° |
| 2026-05-08 13:27 | 41.10236 | 16.63325 | 1919 ft | 128 kts | 70° |
| 2026-05-08 13:27 | 41.10548 | 16.64423 | 1759 ft | 127 kts | 72° |
| 2026-05-08 13:28 | 41.10859 | 16.65517 | 1581 ft | 127 kts | 72° |
| 2026-05-08 13:28 | 41.11172 | 16.66617 | 1416 ft | 128 kts | 71° |
| 2026-05-08 13:28 | 41.11486 | 16.67719 | 1244 ft | 128 kts | 70° |
| 2026-05-08 13:28 | 41.11797 | 16.68817 | 1070 ft | 127 kts | 69° |
| 2026-05-08 13:29 | 41.12112 | 16.69949 | 633 ft | 133 kts | 71° |
| 2026-05-08 13:29 | 41.12413 | 16.71071 | 444 ft | 128 kts | 68° |
| 2026-05-08 13:29 | 41.12729 | 16.72142 | 392 ft | 123 kts | 68° |
| 2026-05-08 13:29 | 41.13032 | 16.73218 | 333 ft | 124 kts | 68° |
| 2026-05-08 13:30 | 41.13346 | 16.74291 | 213 ft | 125 kts | 69° |
| 2026-05-08 13:30 | 41.13698 | 16.75316 | 218 ft | 122 kts | 63° |
| 2026-05-08 13:30 | 41.14056 | 16.76344 | 176 ft | 123 kts | 70° |
| 2026-05-08 13:30 | 41.14258 | 16.77189 | 154 ft | 50 kts | 75° |
| 2026-05-08 13:31 | 41.14242 | 16.77321 | 148 ft | 9 kts | 144° |
| 2026-05-08 13:31 | 41.14182 | 16.77380 | 149 ft | 11 kts | 144° |
| 2026-05-08 13:31 | 41.14130 | 16.77406 | 155 ft | 6 kts | 201° |
| 2026-05-08 13:31 | 41.14093 | 16.77386 | 157 ft | 6 kts | 201° |
| 2026-05-08 13:32 | 41.14053 | 16.77364 | 158 ft | 7 kts | 204° |
| 2026-05-08 13:32 | 41.14037 | 16.77326 | 158 ft | 1 kts | 244° |
| 2026-05-08 13:32 | 41.13992 | 16.77200 | 158 ft | 41 kts | 245° |
| 2026-05-08 13:32 | 41.13876 | 16.76809 | 158 ft | 48 kts | 249° |
| 2026-05-08 13:33 | 41.13720 | 16.76554 | 158 ft | 31 kts | 203° |
| 2026-05-08 13:33 | 41.13600 | 16.76391 | 159 ft | 10 kts | 253° |
| 2026-05-08 13:33 | 41.13595 | 16.76367 | 159 ft | 0 kts | 253° |